sensor_id;sensor_type;location;lat;lon;timestamp;P1;durP1;ratioP1;P2;durP2;ratioP2
32523;SDS011;18965;52.242;20.886;2022-08-21T00:01:47;5.28;;;4.13;;
32523;SDS011;18965;52.242;20.886;2022-08-21T00:04:12;7.60;;;4.18;;
32523;SDS011;18965;52.242;20.886;2022-08-21T00:06:38;4.45;;;3.88;;
32523;SDS011;18965;52.242;20.886;2022-08-21T00:09:05;6.72;;;3.80;;
32523;SDS011;18965;52.242;20.886;2022-08-21T00:11:32;8.32;;;3.85;;
32523;SDS011;18965;52.242;20.886;2022-08-21T00:13:59;6.60;;;4.10;;
32523;SDS011;18965;52.242;20.886;2022-08-21T00:16:26;6.65;;;3.83;;
32523;SDS011;18965;52.242;20.886;2022-08-21T00:18:52;5.50;;;3.78;;
32523;SDS011;18965;52.242;20.886;2022-08-21T00:21:18;5.55;;;3.75;;
32523;SDS011;18965;52.242;20.886;2022-08-21T00:23:43;6.72;;;4.43;;
32523;SDS011;18965;52.242;20.886;2022-08-21T00:26:09;6.70;;;3.92;;
32523;SDS011;18965;52.242;20.886;2022-08-21T00:28:35;8.93;;;3.85;;
32523;SDS011;18965;52.242;20.886;2022-08-21T00:31:01;5.68;;;4.05;;
32523;SDS011;18965;52.242;20.886;2022-08-21T00:33:29;5.30;;;4.05;;
32523;SDS011;18965;52.242;20.886;2022-08-21T00:35:55;6.00;;;4.10;;
32523;SDS011;18965;52.242;20.886;2022-08-21T00:38:21;4.93;;;3.97;;
32523;SDS011;18965;52.242;20.886;2022-08-21T00:40:51;7.53;;;3.90;;
32523;SDS011;18965;52.242;20.886;2022-08-21T00:43:21;8.50;;;4.10;;
32523;SDS011;18965;52.242;20.886;2022-08-21T00:45:50;7.63;;;4.00;;
32523;SDS011;18965;52.242;20.886;2022-08-21T00:48:18;6.88;;;3.97;;
32523;SDS011;18965;52.242;20.886;2022-08-21T00:50:48;5.10;;;4.30;;
32523;SDS011;18965;52.242;20.886;2022-08-21T00:53:17;7.63;;;4.47;;
32523;SDS011;18965;52.242;20.886;2022-08-21T00:55:44;8.13;;;4.13;;
32523;SDS011;18965;52.242;20.886;2022-08-21T00:58:11;8.00;;;3.90;;
32523;SDS011;18965;52.242;20.886;2022-08-21T01:00:39;6.93;;;3.83;;
32523;SDS011;18965;52.242;20.886;2022-08-21T01:03:09;10.05;;;4.30;;
32523;SDS011;18965;52.242;20.886;2022-08-21T01:05:37;5.32;;;3.80;;
32523;SDS011;18965;52.242;20.886;2022-08-21T01:08:04;6.55;;;4.22;;
32523;SDS011;18965;52.242;20.886;2022-08-21T01:10:30;6.13;;;4.55;;
32523;SDS011;18965;52.242;20.886;2022-08-21T01:12:57;10.63;;;4.72;;
32523;SDS011;18965;52.242;20.886;2022-08-21T01:15:24;8.20;;;4.28;;
32523;SDS011;18965;52.242;20.886;2022-08-21T01:17:55;10.68;;;4.60;;
32523;SDS011;18965;52.242;20.886;2022-08-21T01:20:21;6.53;;;4.03;;
32523;SDS011;18965;52.242;20.886;2022-08-21T01:22:47;5.68;;;3.92;;
32523;SDS011;18965;52.242;20.886;2022-08-21T01:25:14;6.80;;;4.15;;
32523;SDS011;18965;52.242;20.886;2022-08-21T01:27:41;6.35;;;3.83;;
32523;SDS011;18965;52.242;20.886;2022-08-21T01:30:08;7.60;;;4.55;;
32523;SDS011;18965;52.242;20.886;2022-08-21T01:32:39;6.13;;;4.05;;
32523;SDS011;18965;52.242;20.886;2022-08-21T01:35:06;4.50;;;3.83;;
32523;SDS011;18965;52.242;20.886;2022-08-21T01:37:32;8.10;;;4.70;;
32523;SDS011;18965;52.242;20.886;2022-08-21T01:39:58;5.97;;;3.83;;
32523;SDS011;18965;52.242;20.886;2022-08-21T01:42:24;7.53;;;4.00;;
32523;SDS011;18965;52.242;20.886;2022-08-21T01:44:50;6.32;;;4.00;;
32523;SDS011;18965;52.242;20.886;2022-08-21T01:47:16;5.25;;;3.85;;
32523;SDS011;18965;52.242;20.886;2022-08-21T01:49:42;6.15;;;3.90;;
32523;SDS011;18965;52.242;20.886;2022-08-21T01:52:09;6.82;;;3.97;;
32523;SDS011;18965;52.242;20.886;2022-08-21T01:54:36;5.57;;;3.90;;
32523;SDS011;18965;52.242;20.886;2022-08-21T01:57:03;8.18;;;4.22;;
32523;SDS011;18965;52.242;20.886;2022-08-21T01:59:30;5.25;;;3.95;;
32523;SDS011;18965;52.242;20.886;2022-08-21T02:01:55;6.70;;;4.28;;
32523;SDS011;18965;52.242;20.886;2022-08-21T02:04:22;5.97;;;3.83;;
32523;SDS011;18965;52.242;20.886;2022-08-21T02:06:49;6.95;;;3.75;;
32523;SDS011;18965;52.242;20.886;2022-08-21T02:09:27;7.38;;;4.20;;
32523;SDS011;18965;52.242;20.886;2022-08-21T02:11:54;11.20;;;3.72;;
32523;SDS011;18965;52.242;20.886;2022-08-21T02:14:20;10.10;;;3.97;;
32523;SDS011;18965;52.242;20.886;2022-08-21T02:16:45;8.40;;;4.15;;
32523;SDS011;18965;52.242;20.886;2022-08-21T02:19:12;7.03;;;4.13;;
32523;SDS011;18965;52.242;20.886;2022-08-21T02:21:39;7.22;;;3.97;;
32523;SDS011;18965;52.242;20.886;2022-08-21T02:24:05;5.95;;;3.63;;
32523;SDS011;18965;52.242;20.886;2022-08-21T02:26:31;6.25;;;3.53;;
32523;SDS011;18965;52.242;20.886;2022-08-21T02:28:57;6.90;;;3.83;;
32523;SDS011;18965;52.242;20.886;2022-08-21T02:31:24;5.57;;;3.38;;
32523;SDS011;18965;52.242;20.886;2022-08-21T02:33:50;7.00;;;3.92;;
32523;SDS011;18965;52.242;20.886;2022-08-21T02:36:16;5.55;;;3.85;;
32523;SDS011;18965;52.242;20.886;2022-08-21T02:38:42;4.53;;;3.58;;
32523;SDS011;18965;52.242;20.886;2022-08-21T02:41:09;5.18;;;3.85;;
32523;SDS011;18965;52.242;20.886;2022-08-21T02:43:37;7.50;;;4.03;;
32523;SDS011;18965;52.242;20.886;2022-08-21T02:46:03;5.15;;;4.07;;
32523;SDS011;18965;52.242;20.886;2022-08-21T02:48:31;4.47;;;3.92;;
32523;SDS011;18965;52.242;20.886;2022-08-21T02:51:02;5.22;;;4.03;;
32523;SDS011;18965;52.242;20.886;2022-08-21T02:53:31;8.63;;;4.22;;
32523;SDS011;18965;52.242;20.886;2022-08-21T02:55:58;8.82;;;4.50;;
32523;SDS011;18965;52.242;20.886;2022-08-21T02:58:27;5.18;;;4.10;;
32523;SDS011;18965;52.242;20.886;2022-08-21T03:00:56;7.13;;;3.92;;
32523;SDS011;18965;52.242;20.886;2022-08-21T03:03:23;7.32;;;4.00;;
32523;SDS011;18965;52.242;20.886;2022-08-21T03:05:50;11.70;;;3.90;;
32523;SDS011;18965;52.242;20.886;2022-08-21T03:08:16;5.18;;;3.90;;
32523;SDS011;18965;52.242;20.886;2022-08-21T03:10:44;6.30;;;3.97;;
32523;SDS011;18965;52.242;20.886;2022-08-21T03:13:12;5.97;;;4.20;;
32523;SDS011;18965;52.242;20.886;2022-08-21T03:15:39;6.80;;;4.28;;
32523;SDS011;18965;52.242;20.886;2022-08-21T03:18:05;6.88;;;4.10;;
32523;SDS011;18965;52.242;20.886;2022-08-21T03:20:32;5.55;;;3.90;;
32523;SDS011;18965;52.242;20.886;2022-08-21T03:22:59;5.60;;;3.92;;
32523;SDS011;18965;52.242;20.886;2022-08-21T03:25:28;5.60;;;4.38;;
32523;SDS011;18965;52.242;20.886;2022-08-21T03:27:56;5.85;;;3.92;;
32523;SDS011;18965;52.242;20.886;2022-08-21T03:30:22;4.40;;;3.97;;
32523;SDS011;18965;52.242;20.886;2022-08-21T03:32:48;7.80;;;4.30;;
32523;SDS011;18965;52.242;20.886;2022-08-21T03:35:16;5.03;;;4.32;;
32523;SDS011;18965;52.242;20.886;2022-08-21T03:37:43;7.53;;;4.25;;
32523;SDS011;18965;52.242;20.886;2022-08-21T03:40:10;5.30;;;4.10;;
32523;SDS011;18965;52.242;20.886;2022-08-21T03:42:37;6.10;;;3.90;;
32523;SDS011;18965;52.242;20.886;2022-08-21T03:45:03;6.20;;;4.03;;
32523;SDS011;18965;52.242;20.886;2022-08-21T03:47:30;4.85;;;3.83;;
32523;SDS011;18965;52.242;20.886;2022-08-21T03:49:56;4.70;;;3.95;;
32523;SDS011;18965;52.242;20.886;2022-08-21T03:52:21;6.00;;;4.20;;
32523;SDS011;18965;52.242;20.886;2022-08-21T03:54:48;7.88;;;4.47;;
32523;SDS011;18965;52.242;20.886;2022-08-21T03:57:15;9.02;;;4.10;;
32523;SDS011;18965;52.242;20.886;2022-08-21T03:59:41;8.80;;;4.43;;
32523;SDS011;18965;52.242;20.886;2022-08-21T04:02:08;4.93;;;4.25;;
32523;SDS011;18965;52.242;20.886;2022-08-21T04:04:35;4.82;;;3.75;;
32523;SDS011;18965;52.242;20.886;2022-08-21T04:07:01;5.40;;;4.10;;
32523;SDS011;18965;52.242;20.886;2022-08-21T04:09:29;4.80;;;4.05;;
32523;SDS011;18965;52.242;20.886;2022-08-21T04:11:56;7.13;;;4.35;;
32523;SDS011;18965;52.242;20.886;2022-08-21T04:14:23;5.38;;;3.80;;
32523;SDS011;18965;52.242;20.886;2022-08-21T04:16:49;5.43;;;4.35;;
32523;SDS011;18965;52.242;20.886;2022-08-21T04:19:14;6.63;;;4.25;;
32523;SDS011;18965;52.242;20.886;2022-08-21T04:21:40;4.80;;;4.05;;
32523;SDS011;18965;52.242;20.886;2022-08-21T04:24:08;6.97;;;4.38;;
32523;SDS011;18965;52.242;20.886;2022-08-21T04:26:35;6.90;;;4.55;;
32523;SDS011;18965;52.242;20.886;2022-08-21T04:29:02;6.47;;;4.30;;
32523;SDS011;18965;52.242;20.886;2022-08-21T04:31:31;5.67;;;4.33;;
32523;SDS011;18965;52.242;20.886;2022-08-21T04:33:57;4.88;;;4.07;;
32523;SDS011;18965;52.242;20.886;2022-08-21T04:36:23;9.05;;;4.22;;
32523;SDS011;18965;52.242;20.886;2022-08-21T04:38:49;6.47;;;4.32;;
32523;SDS011;18965;52.242;20.886;2022-08-21T04:41:14;8.52;;;4.50;;
32523;SDS011;18965;52.242;20.886;2022-08-21T04:43:40;7.38;;;4.18;;
32523;SDS011;18965;52.242;20.886;2022-08-21T04:46:06;5.60;;;4.38;;
32523;SDS011;18965;52.242;20.886;2022-08-21T04:48:32;6.57;;;3.95;;
32523;SDS011;18965;52.242;20.886;2022-08-21T04:51:13;7.07;;;4.20;;
32523;SDS011;18965;52.242;20.886;2022-08-21T04:53:52;5.35;;;4.47;;
32523;SDS011;18965;52.242;20.886;2022-08-21T04:56:37;4.78;;;4.07;;
32523;SDS011;18965;52.242;20.886;2022-08-21T04:59:11;7.18;;;4.25;;
32523;SDS011;18965;52.242;20.886;2022-08-21T05:01:43;9.48;;;4.35;;
32523;SDS011;18965;52.242;20.886;2022-08-21T05:40:00;6.57;;;4.10;;
32523;SDS011;18965;52.242;20.886;2022-08-21T05:42:27;8.10;;;4.50;;
32523;SDS011;18965;52.242;20.886;2022-08-21T05:44:53;7.57;;;4.30;;
32523;SDS011;18965;52.242;20.886;2022-08-21T05:47:19;5.40;;;4.13;;
32523;SDS011;18965;52.242;20.886;2022-08-21T05:49:44;6.30;;;4.53;;
32523;SDS011;18965;52.242;20.886;2022-08-21T05:52:10;6.88;;;4.28;;
32523;SDS011;18965;52.242;20.886;2022-08-21T05:54:36;8.18;;;4.60;;
32523;SDS011;18965;52.242;20.886;2022-08-21T05:57:02;6.40;;;4.75;;
32523;SDS011;18965;52.242;20.886;2022-08-21T05:59:28;7.03;;;4.10;;
32523;SDS011;18965;52.242;20.886;2022-08-21T06:01:54;6.85;;;4.30;;
32523;SDS011;18965;52.242;20.886;2022-08-21T06:04:20;10.10;;;4.50;;
32523;SDS011;18965;52.242;20.886;2022-08-21T06:06:46;5.80;;;3.90;;
32523;SDS011;18965;52.242;20.886;2022-08-21T06:09:12;8.95;;;4.38;;
32523;SDS011;18965;52.242;20.886;2022-08-21T06:11:38;6.53;;;4.43;;
32523;SDS011;18965;52.242;20.886;2022-08-21T06:14:04;7.22;;;4.50;;
32523;SDS011;18965;52.242;20.886;2022-08-21T06:16:31;8.75;;;4.93;;
32523;SDS011;18965;52.242;20.886;2022-08-21T06:18:57;9.75;;;5.03;;
32523;SDS011;18965;52.242;20.886;2022-08-21T06:21:23;6.05;;;4.40;;
32523;SDS011;18965;52.242;20.886;2022-08-21T06:23:49;8.45;;;4.80;;
32523;SDS011;18965;52.242;20.886;2022-08-21T06:26:15;6.50;;;4.75;;
32523;SDS011;18965;52.242;20.886;2022-08-21T06:28:41;6.15;;;4.93;;
32523;SDS011;18965;52.242;20.886;2022-08-21T06:31:40;7.60;;;5.40;;
32523;SDS011;18965;52.242;20.886;2022-08-21T06:33:58;7.43;;;4.80;;
32523;SDS011;18965;52.242;20.886;2022-08-21T06:36:24;7.57;;;4.78;;
32523;SDS011;18965;52.242;20.886;2022-08-21T06:38:50;5.43;;;4.45;;
32523;SDS011;18965;52.242;20.886;2022-08-21T06:41:16;5.10;;;4.63;;
32523;SDS011;18965;52.242;20.886;2022-08-21T06:43:41;10.73;;;5.10;;
32523;SDS011;18965;52.242;20.886;2022-08-21T06:46:07;4.90;;;4.40;;
32523;SDS011;18965;52.242;20.886;2022-08-21T06:48:33;5.72;;;4.32;;
32523;SDS011;18965;52.242;20.886;2022-08-21T06:50:59;11.38;;;5.10;;
32523;SDS011;18965;52.242;20.886;2022-08-21T06:53:26;6.13;;;4.32;;
32523;SDS011;18965;52.242;20.886;2022-08-21T06:55:52;5.82;;;4.60;;
32523;SDS011;18965;52.242;20.886;2022-08-21T06:58:18;6.38;;;4.38;;
32523;SDS011;18965;52.242;20.886;2022-08-21T07:00:46;7.43;;;4.28;;
32523;SDS011;18965;52.242;20.886;2022-08-21T07:05:45;5.68;;;4.13;;
32523;SDS011;18965;52.242;20.886;2022-08-21T07:08:11;6.57;;;4.30;;
32523;SDS011;18965;52.242;20.886;2022-08-21T07:10:36;6.93;;;4.10;;
32523;SDS011;18965;52.242;20.886;2022-08-21T07:13:02;5.65;;;4.30;;
32523;SDS011;18965;52.242;20.886;2022-08-21T07:15:28;8.77;;;4.55;;
32523;SDS011;18965;52.242;20.886;2022-08-21T07:17:54;6.70;;;4.00;;
32523;SDS011;18965;52.242;20.886;2022-08-21T07:20:20;8.15;;;4.75;;
32523;SDS011;18965;52.242;20.886;2022-08-21T07:22:46;8.93;;;4.90;;
32523;SDS011;18965;52.242;20.886;2022-08-21T07:25:12;8.90;;;4.47;;
32523;SDS011;18965;52.242;20.886;2022-08-21T07:27:38;5.03;;;4.45;;
32523;SDS011;18965;52.242;20.886;2022-08-21T07:30:04;5.63;;;4.53;;
32523;SDS011;18965;52.242;20.886;2022-08-21T07:32:31;5.82;;;4.22;;
32523;SDS011;18965;52.242;20.886;2022-08-21T07:34:56;5.68;;;4.20;;
32523;SDS011;18965;52.242;20.886;2022-08-21T07:37:22;5.72;;;4.10;;
32523;SDS011;18965;52.242;20.886;2022-08-21T07:39:49;6.03;;;4.35;;
32523;SDS011;18965;52.242;20.886;2022-08-21T07:42:16;7.30;;;4.60;;
32523;SDS011;18965;52.242;20.886;2022-08-21T07:44:42;7.53;;;4.80;;
32523;SDS011;18965;52.242;20.886;2022-08-21T07:47:08;5.40;;;4.68;;
32523;SDS011;18965;52.242;20.886;2022-08-21T07:49:34;7.43;;;4.35;;
32523;SDS011;18965;52.242;20.886;2022-08-21T07:51:59;7.32;;;4.20;;
32523;SDS011;18965;52.242;20.886;2022-08-21T07:54:26;8.32;;;4.70;;
32523;SDS011;18965;52.242;20.886;2022-08-21T07:56:52;6.90;;;4.78;;
32523;SDS011;18965;52.242;20.886;2022-08-21T07:59:17;6.72;;;4.90;;
32523;SDS011;18965;52.242;20.886;2022-08-21T08:01:43;6.32;;;4.72;;
32523;SDS011;18965;52.242;20.886;2022-08-21T08:04:09;5.18;;;4.55;;
32523;SDS011;18965;52.242;20.886;2022-08-21T08:06:35;7.75;;;4.60;;
32523;SDS011;18965;52.242;20.886;2022-08-21T08:09:00;6.95;;;4.43;;
32523;SDS011;18965;52.242;20.886;2022-08-21T08:11:28;4.88;;;4.35;;
32523;SDS011;18965;52.242;20.886;2022-08-21T08:13:54;5.10;;;4.50;;
32523;SDS011;18965;52.242;20.886;2022-08-21T08:16:22;6.68;;;4.22;;
32523;SDS011;18965;52.242;20.886;2022-08-21T08:18:48;7.38;;;4.40;;
32523;SDS011;18965;52.242;20.886;2022-08-21T08:21:14;6.55;;;4.65;;
32523;SDS011;18965;52.242;20.886;2022-08-21T08:23:40;5.78;;;4.60;;
32523;SDS011;18965;52.242;20.886;2022-08-21T08:26:06;9.55;;;4.78;;
32523;SDS011;18965;52.242;20.886;2022-08-21T08:28:32;7.97;;;4.55;;
32523;SDS011;18965;52.242;20.886;2022-08-21T08:30:58;7.30;;;4.97;;
32523;SDS011;18965;52.242;20.886;2022-08-21T08:33:25;6.28;;;4.05;;
32523;SDS011;18965;52.242;20.886;2022-08-21T08:35:51;6.88;;;4.40;;
32523;SDS011;18965;52.242;20.886;2022-08-21T08:38:18;5.28;;;4.32;;
32523;SDS011;18965;52.242;20.886;2022-08-21T08:43:16;4.40;;;4.00;;
32523;SDS011;18965;52.242;20.886;2022-08-21T08:45:44;7.57;;;4.22;;
32523;SDS011;18965;52.242;20.886;2022-08-21T08:48:13;6.90;;;4.47;;
32523;SDS011;18965;52.242;20.886;2022-08-21T08:50:56;9.70;;;4.38;;
32523;SDS011;18965;52.242;20.886;2022-08-21T08:53:28;6.65;;;4.63;;
32523;SDS011;18965;52.242;20.886;2022-08-21T08:55:57;7.45;;;3.80;;
32523;SDS011;18965;52.242;20.886;2022-08-21T08:58:27;5.72;;;4.30;;
32523;SDS011;18965;52.242;20.886;2022-08-21T09:00:56;6.55;;;3.85;;
32523;SDS011;18965;52.242;20.886;2022-08-21T09:03:23;10.57;;;4.53;;
32523;SDS011;18965;52.242;20.886;2022-08-21T09:05:54;5.93;;;4.60;;
32523;SDS011;18965;52.242;20.886;2022-08-21T09:11:27;6.88;;;4.47;;
32523;SDS011;18965;52.242;20.886;2022-08-21T09:27:49;6.68;;;4.13;;
32523;SDS011;18965;52.242;20.886;2022-08-21T09:30:15;6.47;;;4.00;;
32523;SDS011;18965;52.242;20.886;2022-08-21T09:32:42;6.68;;;4.38;;
32523;SDS011;18965;52.242;20.886;2022-08-21T09:35:10;5.50;;;4.20;;
32523;SDS011;18965;52.242;20.886;2022-08-21T09:37:47;7.15;;;4.45;;
32523;SDS011;18965;52.242;20.886;2022-08-21T09:40:37;9.25;;;4.25;;
32523;SDS011;18965;52.242;20.886;2022-08-21T09:45:31;8.27;;;4.50;;
32523;SDS011;18965;52.242;20.886;2022-08-21T09:50:46;6.28;;;3.80;;
32523;SDS011;18965;52.242;20.886;2022-08-21T09:53:18;6.20;;;3.70;;
32523;SDS011;18965;52.242;20.886;2022-08-21T09:55:54;5.28;;;3.75;;
32523;SDS011;18965;52.242;20.886;2022-08-21T09:58:43;5.60;;;3.97;;
32523;SDS011;18965;52.242;20.886;2022-08-21T10:03:39;5.18;;;3.58;;
32523;SDS011;18965;52.242;20.886;2022-08-21T10:06:07;4.53;;;3.55;;
32523;SDS011;18965;52.242;20.886;2022-08-21T10:08:36;7.20;;;3.60;;
32523;SDS011;18965;52.242;20.886;2022-08-21T10:11:06;5.15;;;4.25;;
32523;SDS011;18965;52.242;20.886;2022-08-21T10:13:47;6.70;;;3.92;;
32523;SDS011;18965;52.242;20.886;2022-08-21T10:24:51;5.50;;;3.65;;
32523;SDS011;18965;52.242;20.886;2022-08-21T10:38:37;5.15;;;3.47;;
32523;SDS011;18965;52.242;20.886;2022-08-21T10:41:32;4.97;;;3.90;;
32523;SDS011;18965;52.242;20.886;2022-08-21T10:45:02;5.00;;;3.40;;
32523;SDS011;18965;52.242;20.886;2022-08-21T10:48:07;3.95;;;3.42;;
32523;SDS011;18965;52.242;20.886;2022-08-21T10:50:46;4.95;;;3.13;;
32523;SDS011;18965;52.242;20.886;2022-08-21T11:01:50;4.45;;;3.67;;
32523;SDS011;18965;52.242;20.886;2022-08-21T11:04:29;5.07;;;3.17;;
32523;SDS011;18965;52.242;20.886;2022-08-21T11:07:13;4.30;;;3.20;;
32523;SDS011;18965;52.242;20.886;2022-08-21T11:09:57;4.68;;;3.47;;
32523;SDS011;18965;52.242;20.886;2022-08-21T11:12:40;5.18;;;3.50;;
32523;SDS011;18965;52.242;20.886;2022-08-21T11:18:17;4.40;;;3.33;;
32523;SDS011;18965;52.242;20.886;2022-08-21T11:21:08;4.53;;;3.58;;
32523;SDS011;18965;52.242;20.886;2022-08-21T11:23:53;6.93;;;3.83;;
32523;SDS011;18965;52.242;20.886;2022-08-21T11:26:37;4.18;;;3.55;;
32523;SDS011;18965;52.242;20.886;2022-08-21T11:29:10;7.78;;;3.50;;
32523;SDS011;18965;52.242;20.886;2022-08-21T11:39:57;4.68;;;3.30;;
32523;SDS011;18965;52.242;20.886;2022-08-21T11:42:29;6.80;;;3.25;;
32523;SDS011;18965;52.242;20.886;2022-08-21T11:45:07;5.00;;;3.13;;
32523;SDS011;18965;52.242;20.886;2022-08-21T11:50:46;4.68;;;3.13;;
32523;SDS011;18965;52.242;20.886;2022-08-21T11:53:18;4.90;;;3.15;;
32523;SDS011;18965;52.242;20.886;2022-08-21T11:56:10;6.63;;;3.10;;
32523;SDS011;18965;52.242;20.886;2022-08-21T11:58:43;5.68;;;3.25;;
32523;SDS011;18965;52.242;20.886;2022-08-21T12:01:18;4.00;;;3.40;;
32523;SDS011;18965;52.242;20.886;2022-08-21T12:06:39;4.18;;;3.08;;
32523;SDS011;18965;52.242;20.886;2022-08-21T12:09:07;3.13;;;2.83;;
32523;SDS011;18965;52.242;20.886;2022-08-21T12:11:59;6.15;;;3.10;;
32523;SDS011;18965;52.242;20.886;2022-08-21T12:14:40;4.97;;;3.10;;
32523;SDS011;18965;52.242;20.886;2022-08-21T12:17:07;6.63;;;3.30;;
32523;SDS011;18965;52.242;20.886;2022-08-21T12:19:34;4.80;;;3.17;;
32523;SDS011;18965;52.242;20.886;2022-08-21T12:24:38;4.05;;;2.90;;
32523;SDS011;18965;52.242;20.886;2022-08-21T12:29:44;6.47;;;3.30;;
32523;SDS011;18965;52.242;20.886;2022-08-21T12:39:46;4.45;;;3.47;;
32523;SDS011;18965;52.242;20.886;2022-08-21T12:42:22;3.30;;;2.97;;
32523;SDS011;18965;52.242;20.886;2022-08-21T12:45:06;4.18;;;3.20;;
32523;SDS011;18965;52.242;20.886;2022-08-21T12:48:00;3.38;;;2.75;;
32523;SDS011;18965;52.242;20.886;2022-08-21T12:53:40;3.78;;;2.80;;
32523;SDS011;18965;52.242;20.886;2022-08-21T12:56:16;3.30;;;2.63;;
32523;SDS011;18965;52.242;20.886;2022-08-21T12:58:59;3.53;;;2.85;;
32523;SDS011;18965;52.242;20.886;2022-08-21T13:01:33;4.05;;;2.80;;
32523;SDS011;18965;52.242;20.886;2022-08-21T13:04:04;3.30;;;2.63;;
32523;SDS011;18965;52.242;20.886;2022-08-21T13:06:42;5.38;;;2.75;;
32523;SDS011;18965;52.242;20.886;2022-08-21T13:09:12;3.72;;;2.90;;
32523;SDS011;18965;52.242;20.886;2022-08-21T13:11:42;3.58;;;2.50;;
32523;SDS011;18965;52.242;20.886;2022-08-21T13:14:17;3.13;;;2.38;;
32523;SDS011;18965;52.242;20.886;2022-08-21T13:16:54;3.35;;;3.05;;
32523;SDS011;18965;52.242;20.886;2022-08-21T13:19:21;7.68;;;3.20;;
32523;SDS011;18965;52.242;20.886;2022-08-21T13:21:47;5.78;;;2.80;;
32523;SDS011;18965;52.242;20.886;2022-08-21T13:24:17;5.90;;;3.03;;
32523;SDS011;18965;52.242;20.886;2022-08-21T13:26:45;3.42;;;2.90;;
32523;SDS011;18965;52.242;20.886;2022-08-21T13:29:14;3.50;;;2.90;;
32523;SDS011;18965;52.242;20.886;2022-08-21T13:31:46;3.45;;;3.00;;
32523;SDS011;18965;52.242;20.886;2022-08-21T13:34:14;4.93;;;3.15;;
32523;SDS011;18965;52.242;20.886;2022-08-21T13:36:42;8.25;;;3.15;;
32523;SDS011;18965;52.242;20.886;2022-08-21T13:39:10;4.40;;;3.03;;
32523;SDS011;18965;52.242;20.886;2022-08-21T13:41:38;5.07;;;3.10;;
32523;SDS011;18965;52.242;20.886;2022-08-21T13:46:42;4.00;;;3.10;;
32523;SDS011;18965;52.242;20.886;2022-08-21T13:49:09;2.95;;;2.70;;
32523;SDS011;18965;52.242;20.886;2022-08-21T13:51:36;7.13;;;3.50;;
32523;SDS011;18965;52.242;20.886;2022-08-21T13:54:13;3.33;;;3.00;;
32523;SDS011;18965;52.242;20.886;2022-08-21T13:57:00;4.25;;;2.85;;
32523;SDS011;18965;52.242;20.886;2022-08-21T13:59:30;4.72;;;3.40;;
32523;SDS011;18965;52.242;20.886;2022-08-21T14:04:34;5.17;;;2.70;;
32523;SDS011;18965;52.242;20.886;2022-08-21T14:07:03;4.25;;;3.08;;
32523;SDS011;18965;52.242;20.886;2022-08-21T14:09:42;4.37;;;3.03;;
32523;SDS011;18965;52.242;20.886;2022-08-21T14:12:13;5.93;;;3.10;;
32523;SDS011;18965;52.242;20.886;2022-08-21T14:14:44;4.82;;;2.83;;
32523;SDS011;18965;52.242;20.886;2022-08-21T14:17:13;4.93;;;2.95;;
32523;SDS011;18965;52.242;20.886;2022-08-21T14:19:51;4.18;;;3.10;;
32523;SDS011;18965;52.242;20.886;2022-08-21T14:25:02;3.80;;;2.92;;
32523;SDS011;18965;52.242;20.886;2022-08-21T14:27:31;3.85;;;2.90;;
32523;SDS011;18965;52.242;20.886;2022-08-21T14:29:59;4.93;;;2.83;;
32523;SDS011;18965;52.242;20.886;2022-08-21T14:32:30;3.70;;;3.08;;
32523;SDS011;18965;52.242;20.886;2022-08-21T14:35:03;4.07;;;3.13;;
32523;SDS011;18965;52.242;20.886;2022-08-21T14:37:29;3.67;;;2.83;;
32523;SDS011;18965;52.242;20.886;2022-08-21T14:39:55;3.97;;;3.30;;
32523;SDS011;18965;52.242;20.886;2022-08-21T14:42:20;4.30;;;2.85;;
32523;SDS011;18965;52.242;20.886;2022-08-21T14:44:46;4.75;;;3.13;;
32523;SDS011;18965;52.242;20.886;2022-08-21T14:47:12;6.38;;;3.15;;
32523;SDS011;18965;52.242;20.886;2022-08-21T14:49:38;4.68;;;3.13;;
32523;SDS011;18965;52.242;20.886;2022-08-21T14:52:04;3.03;;;2.60;;
32523;SDS011;18965;52.242;20.886;2022-08-21T14:54:31;5.30;;;2.90;;
32523;SDS011;18965;52.242;20.886;2022-08-21T14:56:57;3.70;;;2.70;;
32523;SDS011;18965;52.242;20.886;2022-08-21T14:59:26;3.90;;;3.08;;
32523;SDS011;18965;52.242;20.886;2022-08-21T15:01:52;5.53;;;3.35;;
32523;SDS011;18965;52.242;20.886;2022-08-21T15:04:18;5.63;;;2.90;;
32523;SDS011;18965;52.242;20.886;2022-08-21T15:06:43;5.45;;;3.22;;
32523;SDS011;18965;52.242;20.886;2022-08-21T15:09:09;3.40;;;2.70;;
32523;SDS011;18965;52.242;20.886;2022-08-21T15:11:35;5.32;;;3.10;;
32523;SDS011;18965;52.242;20.886;2022-08-21T15:14:02;5.03;;;3.22;;
32523;SDS011;18965;52.242;20.886;2022-08-21T15:16:30;3.33;;;2.95;;
32523;SDS011;18965;52.242;20.886;2022-08-21T15:18:56;3.97;;;2.75;;
32523;SDS011;18965;52.242;20.886;2022-08-21T15:21:22;4.68;;;3.10;;
32523;SDS011;18965;52.242;20.886;2022-08-21T15:23:48;5.40;;;3.03;;
32523;SDS011;18965;52.242;20.886;2022-08-21T15:26:14;3.35;;;2.65;;
32523;SDS011;18965;52.242;20.886;2022-08-21T15:28:40;4.60;;;2.60;;
32523;SDS011;18965;52.242;20.886;2022-08-21T15:31:06;3.25;;;2.95;;
32523;SDS011;18965;52.242;20.886;2022-08-21T15:33:32;2.78;;;2.50;;
32523;SDS011;18965;52.242;20.886;2022-08-21T15:35:58;5.28;;;2.53;;
32523;SDS011;18965;52.242;20.886;2022-08-21T15:38:24;3.47;;;2.40;;
32523;SDS011;18965;52.242;20.886;2022-08-21T15:40:49;4.82;;;2.45;;
32523;SDS011;18965;52.242;20.886;2022-08-21T15:43:29;3.30;;;2.70;;
32523;SDS011;18965;52.242;20.886;2022-08-21T15:45:58;4.35;;;2.60;;
32523;SDS011;18965;52.242;20.886;2022-08-21T15:48:25;3.00;;;2.40;;
32523;SDS011;18965;52.242;20.886;2022-08-21T15:50:51;2.70;;;2.50;;
32523;SDS011;18965;52.242;20.886;2022-08-21T15:53:17;5.35;;;2.83;;
32523;SDS011;18965;52.242;20.886;2022-08-21T15:55:42;6.60;;;2.80;;
32523;SDS011;18965;52.242;20.886;2022-08-21T15:58:11;3.85;;;2.65;;
32523;SDS011;18965;52.242;20.886;2022-08-21T16:00:39;3.10;;;2.63;;
32523;SDS011;18965;52.242;20.886;2022-08-21T16:03:08;4.82;;;2.60;;
32523;SDS011;18965;52.242;20.886;2022-08-21T16:05:39;3.63;;;2.75;;
32523;SDS011;18965;52.242;20.886;2022-08-21T16:08:05;4.28;;;2.70;;
32523;SDS011;18965;52.242;20.886;2022-08-21T16:10:30;3.85;;;2.90;;
32523;SDS011;18965;52.242;20.886;2022-08-21T16:13:01;4.95;;;2.72;;
32523;SDS011;18965;52.242;20.886;2022-08-21T16:15:28;5.50;;;2.50;;
32523;SDS011;18965;52.242;20.886;2022-08-21T16:17:55;5.15;;;2.53;;
32523;SDS011;18965;52.242;20.886;2022-08-21T16:20:24;2.67;;;2.47;;
32523;SDS011;18965;52.242;20.886;2022-08-21T16:22:53;4.78;;;2.50;;
32523;SDS011;18965;52.242;20.886;2022-08-21T16:25:21;6.93;;;2.60;;
32523;SDS011;18965;52.242;20.886;2022-08-21T16:27:48;3.85;;;3.00;;
32523;SDS011;18965;52.242;20.886;2022-08-21T16:30:17;6.90;;;2.95;;
32523;SDS011;18965;52.242;20.886;2022-08-21T16:32:45;3.45;;;2.60;;
32523;SDS011;18965;52.242;20.886;2022-08-21T16:35:13;3.38;;;2.78;;
32523;SDS011;18965;52.242;20.886;2022-08-21T16:37:41;5.77;;;3.63;;
32523;SDS011;18965;52.242;20.886;2022-08-21T16:40:07;4.90;;;3.28;;
32523;SDS011;18965;52.242;20.886;2022-08-21T16:42:34;5.07;;;3.15;;
32523;SDS011;18965;52.242;20.886;2022-08-21T16:45:04;4.95;;;3.28;;
32523;SDS011;18965;52.242;20.886;2022-08-21T16:47:31;5.97;;;3.05;;
32523;SDS011;18965;52.242;20.886;2022-08-21T16:49:57;4.80;;;3.80;;
32523;SDS011;18965;52.242;20.886;2022-08-21T16:52:23;5.55;;;3.53;;
32523;SDS011;18965;52.242;20.886;2022-08-21T16:54:49;3.88;;;3.42;;
32523;SDS011;18965;52.242;20.886;2022-08-21T16:57:16;4.65;;;3.55;;
32523;SDS011;18965;52.242;20.886;2022-08-21T16:59:42;4.18;;;3.20;;